Holly, MI

8:24 PM EST on December 27, 2014 (GMT -0500)
Holly Academy | Change Station
CLOSE
Current Station
Personal Weather Station
Location: Holly, MI
Elevation: 971 ft
Nearby Weather Stations

Elev 971 ft 42.79 °N, 83.64 °W | Updated 4 minutes ago

Overcast
Overcast
38.8 °F
Feels Like 30 °F
N
17.0
Wind Variable Wind from SW

Today
High -- | Low -- °F
--% Chance of Precip.
Yesterday
High -- | Low -- °F
Precip. -- in
8:04 AM 5:07 PM
Waxing Crescent, 42% visible
Pressure 29.95 in
Visibility 10.0 miles
Clouds Scattered Clouds 2400 ft
Mostly Cloudy 3500 ft
Overcast 4600 ft
Windchill 30 °F
Dew Point 17 °F
Humidity 41%
Rainfall 0.04 in
Snow Depth Not available.
UV 0 out of 12
Pollen .10 out of 12
Air Quality Not available.
Flu Activity Not available.
SPECI KPTK 280121Z 27021KT 10SM SCT024 BKN035 OVC046 05/01 A2995 RMK AO2 PK WND 27030/0104 T00500006

More Conditions Fewer Conditions

Pressure 29.95 in
Visibility 10.0 miles
Clouds Scattered Clouds 2400 ft
Mostly Cloudy 3500 ft
Overcast 4600 ft
Windchill 30 °F
Dew Point 17 °F
Humidity 41%
Rainfall 0.04 in
Snow Depth Not available.
UV 0 out of 12
Pollen .10 out of 12
Air Quality Not available.
Flu Activity Not available.
SPECI KPTK 280121Z 27021KT 10SM SCT024 BKN035 OVC046 05/01 A2995 RMK AO2 PK WND 27030/0104 T00500006

More Conditions Fewer Conditions

10-Day Weather Forecast

Almanac

Astronomy

Dec. 27, 2014 Rise Set
Actual Time
Civil Twilight
Nautical Twilight
Astronomical Twilight
Moon
Length of Visible Light
Length of Day
Tomorrow will be .
, % of the Moon is Illuminated

Today's Extremes

State Highs State Lows

Community

WunderPhotos

Upload Photos

1,781,120 photos uploaded!

WunderBlogs® & News

Nearby

Air Quality

  Air Quality AQ Index Pollutant
Not available.

Snow Depth

Station Depth Elevation

Earthquake Activity

City Distance Mag. Time & Date
Minimum magnitude displayed is 2.5.

Coastal Water Temperatures

Place Temperature

Nearby Weather Stations